createdAt,value
2019-05-30T00:00:17.891Z,6.20
2019-05-30T00:02:51.362Z,6.27
2019-05-30T00:05:25.799Z,6.70
2019-05-30T00:07:58.251Z,6.10
2019-05-30T00:10:30.829Z,6.80
2019-05-30T00:13:06.581Z,5.90
2019-05-30T00:15:39.876Z,7.47
2019-05-30T00:18:13.006Z,7.67
2019-05-30T00:20:47.538Z,7.87
2019-05-30T00:23:18.929Z,6.50
2019-05-30T00:25:51.940Z,6.40
2019-05-30T00:28:25.013Z,6.17
2019-05-30T00:31:00.196Z,6.93
2019-05-30T00:33:33.827Z,7.53
2019-05-30T00:36:06.920Z,6.90
2019-05-30T00:38:40.988Z,7.97
2019-05-30T00:41:14.178Z,6.80
2019-05-30T00:43:49.589Z,8.47
2019-05-30T00:46:22.799Z,9.13
2019-05-30T00:48:53.999Z,7.70
2019-05-30T00:51:27.900Z,7.27
2019-05-30T00:54:02.954Z,7.50
2019-05-30T00:56:36.885Z,6.47
2019-05-30T00:59:09.400Z,10.33
2019-05-30T01:01:43.072Z,7.27
2019-05-30T01:04:15.905Z,8.67
2019-05-30T01:06:49.100Z,8.97
2019-05-30T01:09:24.720Z,9.73
2019-05-30T01:11:59.117Z,8.57
2019-05-30T01:14:30.598Z,8.20
2019-05-30T01:17:03.178Z,9.07
2019-05-30T01:19:37.490Z,8.40
2019-05-30T01:22:09.243Z,7.70
2019-05-30T01:24:43.180Z,7.97
2019-05-30T01:27:16.075Z,6.90
2019-05-30T01:29:48.200Z,8.50
2019-05-30T01:32:28.879Z,7.40
2019-05-30T01:35:03.949Z,7.17
2019-05-30T01:37:37.111Z,8.60
2019-05-30T01:40:09.413Z,9.77
2019-05-30T01:42:43.235Z,13.03
2019-05-30T01:45:16.483Z,11.30
2019-05-30T01:47:49.307Z,9.80
2019-05-30T01:50:22.709Z,9.90
2019-05-30T01:52:55.517Z,8.23
2019-05-30T01:55:28.237Z,8.77
2019-05-30T01:58:01.895Z,7.20
2019-05-30T02:00:39.384Z,6.80
2019-05-30T02:03:11.650Z,6.13
2019-05-30T02:05:43.400Z,7.57
2019-05-30T02:08:16.537Z,8.03
2019-05-30T02:10:49.489Z,8.03
2019-05-30T02:13:23.178Z,7.50
2019-05-30T02:15:57.549Z,7.07
2019-05-30T02:18:28.843Z,7.47
2019-05-30T02:21:02.107Z,6.67
2019-05-30T02:23:35.302Z,7.43
2019-05-30T02:26:08.267Z,6.27
2019-05-30T02:28:40.313Z,6.67
2019-05-30T02:31:14.369Z,6.03
2019-05-30T02:33:46.841Z,7.60
2019-05-30T02:36:19.945Z,6.40
2019-05-30T02:38:53.472Z,7.37
2019-05-30T02:41:25.615Z,6.37
2019-05-30T02:43:58.696Z,6.40
2019-05-30T02:46:31.570Z,6.90
2019-05-30T02:49:06.605Z,6.90
2019-05-30T02:51:37.862Z,6.70
2019-05-30T02:54:13.274Z,6.30
2019-05-30T02:56:47.484Z,6.67
2019-05-30T02:59:19.624Z,6.50
2019-05-30T03:02:01.022Z,5.77
2019-05-30T03:04:25.573Z,5.40
2019-05-30T03:06:58.773Z,5.50
2019-05-30T03:09:30.680Z,7.10
2019-05-30T03:12:06.919Z,5.80
2019-05-30T03:14:39.979Z,6.03
2019-05-30T03:17:14.721Z,5.73
2019-05-30T03:19:47.483Z,6.20
2019-05-30T03:22:20.807Z,6.03
2019-05-30T03:24:52.869Z,5.83
2019-05-30T03:27:25.924Z,5.63
2019-05-30T03:29:58.170Z,5.27
2019-05-30T03:33:02.705Z,7.07
2019-05-30T03:35:17.499Z,5.30
2019-05-30T03:37:40.737Z,5.40
2019-05-30T03:40:13.727Z,5.70
2019-05-30T03:42:46.912Z,5.27
2019-05-30T03:45:19.045Z,5.83
2019-05-30T03:47:56.287Z,4.90
2019-05-30T03:50:31.277Z,5.70
2019-05-30T03:53:06.876Z,4.93
2019-05-30T03:55:41.136Z,4.60
2019-05-30T03:58:20.868Z,4.93
2019-05-30T04:01:05.770Z,4.83
2019-05-30T04:03:45.449Z,5.20
2019-05-30T04:06:24.640Z,4.87
2019-05-30T04:09:00.856Z,4.80
2019-05-30T04:12:02.714Z,4.80
2019-05-30T04:14:38.532Z,5.60
2019-05-30T04:17:14.937Z,5.50
2019-05-30T04:19:46.847Z,5.30
2019-05-30T04:22:19.850Z,5.70
2019-05-30T04:24:51.241Z,4.93
2019-05-30T04:27:23.053Z,5.37
2019-05-30T04:29:56.948Z,4.83
2019-05-30T04:32:28.314Z,4.83
2019-05-30T04:35:01.019Z,7.00
2019-05-30T04:37:34.522Z,6.40
2019-05-30T04:40:06.788Z,5.87
2019-05-30T04:42:40.095Z,5.20
2019-05-30T04:45:13.648Z,5.80
2019-05-30T04:47:46.225Z,5.57
2019-05-30T04:50:18.833Z,6.13
2019-05-30T04:52:51.045Z,5.33
2019-05-30T04:55:24.925Z,5.27
2019-05-30T04:57:56.200Z,6.87
2019-05-30T05:00:28.155Z,6.53
2019-05-30T05:03:00.242Z,5.83
2019-05-30T05:05:34.269Z,5.57
2019-05-30T05:08:07.255Z,4.90
2019-05-30T05:10:40.339Z,5.03
2019-05-30T05:13:12.369Z,5.27
2019-05-30T05:15:46.515Z,5.97
2019-05-30T05:18:19.418Z,5.60
2019-05-30T05:20:52.283Z,5.40
2019-05-30T05:23:26.114Z,5.00
2019-05-30T05:26:01.308Z,5.30
2019-05-30T05:28:36.029Z,5.00
2019-05-30T05:31:07.389Z,5.63
2019-05-30T05:33:53.672Z,4.70
2019-05-30T05:36:13.337Z,5.97
2019-05-30T05:38:46.468Z,4.80
2019-05-30T05:41:20.168Z,4.80
2019-05-30T05:43:55.825Z,5.33
2019-05-30T05:46:28.723Z,4.97
2019-05-30T05:49:01.535Z,5.23
2019-05-30T05:51:34.535Z,5.43
2019-05-30T05:54:07.684Z,3.80
2019-05-30T05:56:40.442Z,4.87
2019-05-30T05:59:14.289Z,5.03
2019-05-30T06:01:47.567Z,4.83
2019-05-30T06:04:21.135Z,5.07
2019-05-30T06:06:52.783Z,4.33
2019-05-30T06:09:26.414Z,4.20
2019-05-30T06:11:59.004Z,5.50
2019-05-30T06:14:30.612Z,5.00
2019-05-30T06:17:02.014Z,4.77
2019-05-30T06:19:46.023Z,4.17
2019-05-30T06:22:10.763Z,4.23
2019-05-30T06:24:44.691Z,4.03
2019-05-30T06:27:20.048Z,4.53
2019-05-30T06:29:53.621Z,3.90
2019-05-30T06:32:26.822Z,5.30
2019-05-30T06:34:58.509Z,3.93
2019-05-30T06:37:31.496Z,4.00
2019-05-30T06:40:02.912Z,3.70
2019-05-30T06:42:34.635Z,3.50
2019-05-30T06:45:07.137Z,3.60
2019-05-30T06:47:40.136Z,3.20
2019-05-30T06:50:14.004Z,3.57
2019-05-30T06:52:46.793Z,3.37
2019-05-30T06:55:18.625Z,3.17
2019-05-30T06:57:57.378Z,3.87
2019-05-30T07:00:29.813Z,3.30
2019-05-30T07:03:01.782Z,3.80
2019-05-30T07:05:35.479Z,2.90
2019-05-30T07:08:09.418Z,3.37
2019-05-30T07:10:40.705Z,2.80
2019-05-30T07:13:13.877Z,3.00
2019-05-30T07:15:47.863Z,3.97
2019-05-30T07:18:20.344Z,2.93
2019-05-30T07:20:53.053Z,2.70
2019-05-30T07:23:25.906Z,2.67
2019-05-30T07:26:03.414Z,2.80
2019-05-30T07:28:34.977Z,2.90
2019-05-30T07:31:07.871Z,2.50
2019-05-30T07:33:40.956Z,3.47
2019-05-30T07:36:16.937Z,2.20
2019-05-30T07:38:51.108Z,2.47
2019-05-30T07:41:24.657Z,3.17
2019-05-30T07:43:58.943Z,2.80
2019-05-30T07:46:33.002Z,2.57
2019-05-30T07:49:08.581Z,2.67
2019-05-30T07:51:40.229Z,2.43
2019-05-30T07:54:14.672Z,3.20
2019-05-30T07:57:03.858Z,2.80
2019-05-30T07:59:53.641Z,2.40
2019-05-30T08:02:46.735Z,2.43
2019-05-30T08:05:25.121Z,2.40
2019-05-30T08:07:56.927Z,3.67
2019-05-30T08:10:28.169Z,1.93
2019-05-30T08:13:00.897Z,2.00
2019-05-30T08:15:33.487Z,2.30
2019-05-30T08:18:09.810Z,1.70
2019-05-30T08:20:42.095Z,2.40
2019-05-30T08:23:16.290Z,2.60
2019-05-30T08:25:50.168Z,2.70
2019-05-30T08:28:26.053Z,2.23
2019-05-30T08:30:59.118Z,2.20
2019-05-30T08:33:33.435Z,2.73
2019-05-30T08:36:05.824Z,2.00
2019-05-30T08:38:39.374Z,2.47
2019-05-30T08:41:12.761Z,3.10
2019-05-30T08:43:44.215Z,2.07
2019-05-30T08:46:18.731Z,2.03
2019-05-30T08:48:51.566Z,2.10
2019-05-30T08:51:23.296Z,2.80
2019-05-30T08:53:56.294Z,2.63
2019-05-30T08:56:28.634Z,2.70
2019-05-30T08:59:02.440Z,2.47
2019-05-30T09:01:37.734Z,2.17
2019-05-30T09:04:13.280Z,2.83
2019-05-30T09:06:47.283Z,2.10
2019-05-30T09:09:22.499Z,2.70
2019-05-30T09:11:55.491Z,1.93
2019-05-30T09:14:28.772Z,1.93
2019-05-30T09:17:01.383Z,2.50
2019-05-30T09:19:33.576Z,1.93
2019-05-30T09:22:07.371Z,1.87
2019-05-30T09:24:42.169Z,2.13
2019-05-30T09:27:15.847Z,2.00
2019-05-30T09:29:49.387Z,2.43
2019-05-30T09:32:22.462Z,1.80
2019-05-30T09:34:54.760Z,2.10
2019-05-30T09:37:26.861Z,2.03
2019-05-30T09:39:58.395Z,2.00
2019-05-30T09:42:33.097Z,2.30
2019-05-30T09:45:07.801Z,1.90
2019-05-30T09:47:41.947Z,2.07
2019-05-30T09:50:15.551Z,2.03
2019-05-30T09:52:49.516Z,2.43
2019-05-30T09:55:21.817Z,2.67
2019-05-30T09:57:55.616Z,2.70
2019-05-30T10:00:29.945Z,2.33
2019-05-30T10:03:03.760Z,2.63
2019-05-30T10:05:38.989Z,2.00
2019-05-30T10:08:13.168Z,3.30
2019-05-30T10:10:47.834Z,3.00
2019-05-30T10:13:19.691Z,2.30
2019-05-30T10:15:52.705Z,2.57
2019-05-30T10:18:25.665Z,2.17
2019-05-30T10:20:58.696Z,2.03
2019-05-30T10:23:32.127Z,2.60
2019-05-30T10:26:06.006Z,1.87
2019-05-30T10:28:40.279Z,2.40
2019-05-30T10:31:12.383Z,2.67
2019-05-30T10:33:44.527Z,1.70
2019-05-30T10:36:20.142Z,2.10
2019-05-30T10:38:56.024Z,1.97
2019-05-30T10:41:28.396Z,2.00
2019-05-30T10:44:02.902Z,1.80
2019-05-30T10:46:36.008Z,2.13
2019-05-30T10:49:08.398Z,1.97
2019-05-30T10:51:41.086Z,2.20
2019-05-30T10:54:13.711Z,2.60
2019-05-30T10:56:48.396Z,1.87
2019-05-30T10:59:22.575Z,1.97
2019-05-30T11:01:54.533Z,1.83
2019-05-30T11:04:27.020Z,2.13
2019-05-30T11:07:54.813Z,1.57
2019-05-30T11:10:23.893Z,1.50
2019-05-30T11:13:03.410Z,1.50
2019-05-30T11:15:28.940Z,1.53
2019-05-30T11:18:01.244Z,1.50
2019-05-30T11:20:34.881Z,1.80
2019-05-30T11:23:10.737Z,1.67
2019-05-30T11:25:43.991Z,2.43
2019-05-30T11:28:16.973Z,1.50
2019-05-30T11:30:52.797Z,1.40
2019-05-30T11:33:27.754Z,1.80
2019-05-30T11:36:02.487Z,1.60
2019-05-30T11:38:35.349Z,2.10
2019-05-30T11:41:08.275Z,1.80
2019-05-30T11:43:40.236Z,1.90
2019-05-30T11:46:12.569Z,1.50
2019-05-30T11:48:45.026Z,1.70
2019-05-30T11:51:19.635Z,1.50
2019-05-30T11:53:54.295Z,1.87
2019-05-30T11:56:27.221Z,2.10
2019-05-30T11:59:00.248Z,1.70
2019-05-30T12:01:32.697Z,1.53
2019-05-30T12:04:06.726Z,1.70
2019-05-30T12:06:38.329Z,2.00
2019-05-30T12:09:14.595Z,1.77
2019-05-30T12:11:47.164Z,2.27
2019-05-30T12:14:21.567Z,2.10
2019-05-30T12:16:59.460Z,1.83
2019-05-30T12:19:34.039Z,1.60
2019-05-30T12:22:05.272Z,2.33
2019-05-30T12:24:37.527Z,2.40
2019-05-30T12:27:15.885Z,1.77
2019-05-30T12:29:48.322Z,1.63
2019-05-30T12:32:25.114Z,1.50
2019-05-30T12:35:00.888Z,1.40
2019-05-30T12:37:53.627Z,1.20
2019-05-30T12:40:13.760Z,1.50
2019-05-30T12:42:47.364Z,1.93
2019-05-30T12:45:21.779Z,1.90
2019-05-30T12:48:07.007Z,1.90
2019-05-30T12:50:42.317Z,1.50
2019-05-30T12:53:20.171Z,1.60
2019-05-30T12:55:54.337Z,2.20
2019-05-30T12:58:29.926Z,1.97
2019-05-30T13:01:02.973Z,2.20
2019-05-30T13:03:35.393Z,2.20
2019-05-30T13:06:15.149Z,1.50
2019-05-30T13:08:49.775Z,1.37
2019-05-30T13:11:23.470Z,1.53
2019-05-30T13:13:56.647Z,1.50
2019-05-30T13:16:28.856Z,1.40
2019-05-30T13:19:02.665Z,1.53
2019-05-30T13:21:36.806Z,1.50
2019-05-30T13:24:09.568Z,1.60
2019-05-30T13:26:42.411Z,1.73
2019-05-30T13:29:17.791Z,1.57
2019-05-30T13:31:51.381Z,1.93
2019-05-30T13:34:25.108Z,1.97
2019-05-30T13:36:56.882Z,2.30
2019-05-30T13:39:29.312Z,2.93
2019-05-30T13:42:01.625Z,3.27
2019-05-30T13:44:33.551Z,2.37
2019-05-30T13:47:06.699Z,3.10
2019-05-30T13:49:38.524Z,3.60
2019-05-30T13:52:11.631Z,3.00
2019-05-30T13:54:44.627Z,3.60
2019-05-30T13:57:17.656Z,3.63
2019-05-30T13:59:53.772Z,3.10
2019-05-30T14:02:27.239Z,3.00
2019-05-30T14:04:59.974Z,2.70
2019-05-30T14:07:32.543Z,3.97
2019-05-30T14:10:08.920Z,3.33
2019-05-30T14:12:40.862Z,2.87
2019-05-30T14:15:15.045Z,3.60
2019-05-30T14:17:49.713Z,3.10
2019-05-30T14:20:22.044Z,3.07
2019-05-30T14:22:55.880Z,3.80
2019-05-30T14:25:28.934Z,2.70
2019-05-30T14:28:01.892Z,2.80
2019-05-30T14:30:35.782Z,2.50
2019-05-30T14:33:08.126Z,3.00
2019-05-30T14:35:40.781Z,2.80
2019-05-30T14:38:13.831Z,2.80
2019-05-30T14:40:47.865Z,3.47
2019-05-30T14:43:20.871Z,2.87
2019-05-30T14:45:54.676Z,3.63
2019-05-30T14:48:27.844Z,2.50
2019-05-30T14:51:01.303Z,2.53
2019-05-30T14:53:34.891Z,2.80
2019-05-30T14:56:09.139Z,2.67
2019-05-30T14:58:42.062Z,2.93
2019-05-30T15:01:20.410Z,2.80
2019-05-30T15:03:55.040Z,3.00
2019-05-30T15:06:28.421Z,2.57
2019-05-30T15:09:14.454Z,2.70
2019-05-30T15:11:36.082Z,2.97
2019-05-30T15:14:08.752Z,3.27
2019-05-30T15:16:43.873Z,2.23
2019-05-30T15:19:17.532Z,3.30
2019-05-30T15:21:50.173Z,2.77
2019-05-30T15:24:22.298Z,2.87
2019-05-30T15:26:55.310Z,2.50
2019-05-30T15:29:28.784Z,2.20
2019-05-30T15:32:02.173Z,3.57
2019-05-30T15:34:34.164Z,2.50
2019-05-30T15:37:10.656Z,2.67
2019-05-30T15:39:42.599Z,2.10
2019-05-30T15:42:15.345Z,3.23
2019-05-30T15:44:49.582Z,3.27
2019-05-30T15:47:23.299Z,2.47
2019-05-30T15:49:56.439Z,2.67
2019-05-30T15:52:28.977Z,3.03
2019-05-30T15:55:03.288Z,2.57
2019-05-30T15:57:35.127Z,2.20
2019-05-30T16:00:10.023Z,2.77
2019-05-30T16:02:44.344Z,3.07
2019-05-30T16:05:18.715Z,2.47
2019-05-30T16:07:52.006Z,2.17
2019-05-30T16:10:29.008Z,2.40
2019-05-30T16:13:02.691Z,2.30
2019-05-30T16:15:37.035Z,2.67
2019-05-30T16:18:08.277Z,2.57
2019-05-30T16:20:43.398Z,2.50
2019-05-30T16:23:18.814Z,2.23
2019-05-30T16:25:50.316Z,2.50
2019-05-30T16:28:24.484Z,2.80
2019-05-30T16:30:57.680Z,2.77
2019-05-30T16:33:31.262Z,2.90
2019-05-30T16:36:05.444Z,2.33
2019-05-30T16:38:38.510Z,2.47
2019-05-30T16:41:12.605Z,2.50
2019-05-30T16:43:44.506Z,3.20
2019-05-30T16:46:18.490Z,3.00
2019-05-30T16:48:53.163Z,2.50
2019-05-30T16:51:26.984Z,2.37
2019-05-30T16:54:01.272Z,2.40
2019-05-30T16:56:35.981Z,2.53
2019-05-30T16:59:09.848Z,2.53
2019-05-30T17:01:41.950Z,2.73
2019-05-30T17:04:14.869Z,2.63
2019-05-30T17:06:47.546Z,4.07
2019-05-30T17:09:21.605Z,3.00
2019-05-30T17:11:53.985Z,3.17
2019-05-30T17:14:26.741Z,2.70
2019-05-30T17:17:02.849Z,2.30
2019-05-30T17:19:33.721Z,2.50
2019-05-30T17:22:05.720Z,3.10
2019-05-30T17:24:39.099Z,3.27
2019-05-30T17:27:12.194Z,2.40
2019-05-30T17:29:45.644Z,3.17
2019-05-30T17:32:17.826Z,2.80
2019-05-30T17:34:50.927Z,2.90
2019-05-30T17:37:24.504Z,2.37
2019-05-30T17:39:56.870Z,2.40
2019-05-30T17:42:29.271Z,2.30
2019-05-30T17:45:02.649Z,2.60
2019-05-30T17:47:35.772Z,3.13
2019-05-30T17:50:11.819Z,2.93
2019-05-30T17:52:45.368Z,2.63
2019-05-30T17:55:17.756Z,2.20
2019-05-30T17:57:53.977Z,2.37
2019-05-30T18:00:26.827Z,2.70
2019-05-30T18:03:42.766Z,3.80
2019-05-30T18:06:15.238Z,3.50
2019-05-30T18:08:50.502Z,3.27
2019-05-30T18:11:22.830Z,2.53
2019-05-30T18:13:57.291Z,3.70
2019-05-30T18:16:29.335Z,14.13
2019-05-30T18:19:04.174Z,5.80
2019-05-30T18:21:38.431Z,3.23
2019-05-30T18:24:13.673Z,2.60
2019-05-30T18:26:45.397Z,3.13
2019-05-30T18:29:19.049Z,6.17
2019-05-30T18:31:51.774Z,4.70
2019-05-30T18:34:24.168Z,3.53
2019-05-30T18:36:58.886Z,5.43
2019-05-30T18:39:30.795Z,3.40
2019-05-30T18:42:02.832Z,3.10
2019-05-30T18:44:37.042Z,3.70
2019-05-30T18:47:10.145Z,2.90
2019-05-30T18:49:43.949Z,3.77
2019-05-30T18:52:19.575Z,3.00
2019-05-30T18:54:52.053Z,2.87
2019-05-30T18:57:24.819Z,2.80
2019-05-30T18:59:56.963Z,3.33
2019-05-30T19:02:31.955Z,2.33
2019-05-30T19:05:04.268Z,3.47
2019-05-30T19:07:40.817Z,4.87
2019-05-30T19:10:22.614Z,4.43
2019-05-30T19:12:56.687Z,3.93
2019-05-30T19:15:31.491Z,4.03
2019-05-30T19:18:08.967Z,3.23
2019-05-30T19:20:41.069Z,2.60
2019-05-30T19:23:13.319Z,2.33
2019-05-30T19:25:47.016Z,2.43
2019-05-30T19:28:21.294Z,7.00
2019-05-30T19:30:53.356Z,7.63
2019-05-30T19:33:26.680Z,6.37
2019-05-30T19:36:01.114Z,4.03
2019-05-30T19:38:35.522Z,2.27
2019-05-30T19:41:09.933Z,2.20
2019-05-30T19:43:41.265Z,2.20
2019-05-30T19:46:15.951Z,2.60
2019-05-30T19:48:50.087Z,2.90
2019-05-30T19:51:24.180Z,2.50
2019-05-30T19:53:56.819Z,2.27
2019-05-30T19:56:29.541Z,2.87
2019-05-30T19:59:03.276Z,2.67
2019-05-30T20:01:38.009Z,2.20
2019-05-30T20:04:13.043Z,2.40
2019-05-30T20:06:53.688Z,2.00
2019-05-30T20:09:27.493Z,2.27
2019-05-30T20:12:03.225Z,2.27
2019-05-30T20:14:32.943Z,2.73
2019-05-30T20:17:05.266Z,1.80
2019-05-30T20:19:40.005Z,2.30
2019-05-30T20:22:13.594Z,2.63
2019-05-30T20:24:47.603Z,2.57
2019-05-30T20:27:20.531Z,2.70
2019-05-30T20:29:53.640Z,2.23
2019-05-30T20:32:26.448Z,2.43
2019-05-30T20:34:59.912Z,3.40
2019-05-30T20:37:32.744Z,2.70
2019-05-30T20:40:06.155Z,2.37
2019-05-30T20:42:39.086Z,2.93
2019-05-30T20:45:10.858Z,2.40
2019-05-30T20:47:44.486Z,2.90
2019-05-30T20:50:17.048Z,2.70
2019-05-30T20:52:50.675Z,2.93
2019-05-30T20:55:23.871Z,2.40
2019-05-30T20:57:58.287Z,2.03
2019-05-30T21:00:40.097Z,2.60
2019-05-30T21:03:11.710Z,2.40
2019-05-30T21:05:46.060Z,3.40
2019-05-30T21:08:19.896Z,2.63
2019-05-30T21:10:54.956Z,2.80
2019-05-30T21:13:27.913Z,3.10
2019-05-30T21:16:01.814Z,2.77
2019-05-30T21:18:37.730Z,2.90
2019-05-30T21:21:10.239Z,3.20
2019-05-30T21:23:44.431Z,2.50
2019-05-30T21:26:21.397Z,2.50
2019-05-30T21:28:55.913Z,2.73
2019-05-30T21:31:28.924Z,2.13
2019-05-30T21:34:02.929Z,3.30
2019-05-30T21:36:35.683Z,2.30
2019-05-30T21:39:08.455Z,3.53
2019-05-30T21:41:44.551Z,2.30
2019-05-30T21:44:16.914Z,2.63
2019-05-30T21:46:50.882Z,2.63
2019-05-30T21:49:24.185Z,2.37
2019-05-30T21:51:56.647Z,1.80
2019-05-30T21:54:29.404Z,2.43
2019-05-30T21:57:01.053Z,2.50
2019-05-30T21:59:33.053Z,3.30
2019-05-30T22:02:07.206Z,3.10
2019-05-30T22:04:40.660Z,2.53
2019-05-30T22:07:13.078Z,2.60
2019-05-30T22:09:45.270Z,2.33
2019-05-30T22:12:20.580Z,2.50
2019-05-30T22:14:53.091Z,2.63
2019-05-30T22:17:26.770Z,2.43
2019-05-30T22:20:00.404Z,2.80
2019-05-30T22:22:34.189Z,2.33
2019-05-30T22:25:06.524Z,2.07
2019-05-30T22:27:39.132Z,2.10
2019-05-30T22:30:13.191Z,2.70
2019-05-30T22:32:45.175Z,2.27
2019-05-30T22:35:19.296Z,2.57
2019-05-30T22:37:53.112Z,1.93
2019-05-30T22:40:27.181Z,2.40
2019-05-30T22:43:01.996Z,2.23
2019-05-30T22:45:46.158Z,2.40
2019-05-30T22:48:35.279Z,2.20
2019-05-30T22:51:14.044Z,1.80
2019-05-30T22:53:53.380Z,2.40
2019-05-30T22:56:34.182Z,2.20
2019-05-30T22:59:14.012Z,2.37
2019-05-30T23:01:47.317Z,2.50
2019-05-30T23:04:19.084Z,2.07
2019-05-30T23:06:52.462Z,2.03
2019-05-30T23:09:25.272Z,1.83
2019-05-30T23:11:57.358Z,2.50
2019-05-30T23:14:31.071Z,2.20
2019-05-30T23:17:04.398Z,3.70
2019-05-30T23:19:36.382Z,3.43
2019-05-30T23:22:10.365Z,2.83
2019-05-30T23:24:42.358Z,2.80
2019-05-30T23:27:22.232Z,2.20
2019-05-30T23:29:55.930Z,2.40
2019-05-30T23:32:29.471Z,2.50
2019-05-30T23:35:07.929Z,1.60
2019-05-30T23:37:41.729Z,1.90
2019-05-30T23:40:13.541Z,2.90
2019-05-30T23:42:46.418Z,2.67
2019-05-30T23:45:19.348Z,2.70
2019-05-30T23:47:53.501Z,2.50
2019-05-30T23:50:27.080Z,2.90
2019-05-30T23:52:58.427Z,3.03
2019-05-30T23:55:31.224Z,2.33
2019-05-30T23:58:03.433Z,2.23
